Time;durP1;ratioP1;P1;durP2;ratioP2;P2;SDS_P1;SDS_P2;PMS_P1;PMS_P2;Temp;Humidity;BMP_temperature;BMP_pressure;BME280_temperature;BME280_humidity;BME280_pressure;Samples;Min_cycle;Max_cycle;Signal;HPM_P1;HPM_P2
2021/12/11 00:00:17;;;;;;;2.50;1.10;;;4.20;83.30;;;;;;5058112;28;20098;-67
2021/12/11 00:02:44;;;;;;;1.80;1.00;;;4.20;83.30;;;;;;5055540;28;20185;-67
2021/12/11 00:05:15;;;;;;;2.05;1.13;;;4.10;83.20;;;;;;5057979;28;20163;-66
2021/12/11 00:07:42;;;;;;;3.03;1.35;;;4.20;83.30;;;;;;5037942;28;20049;-66
2021/12/11 00:10:16;;;;;;;2.72;1.10;;;4.20;83.20;;;;;;5057896;28;20622;-66
2021/12/11 00:12:52;;;;;;;1.98;1.13;;;4.10;83.20;;;;;;5056194;28;20045;-66
2021/12/11 00:15:40;;;;;;;2.38;1.10;;;4.10;83.20;;;;;;5057496;28;20039;-66
2021/12/11 00:18:09;;;;;;;2.33;0.90;;;4.10;83.20;;;;;;5054514;28;20039;-66
2021/12/11 00:20:40;;;;;;;2.80;1.52;;;4.10;83.20;;;;;;5057553;28;20029;-66
2021/12/11 00:23:06;;;;;;;2.17;1.30;;;4.10;83.20;;;;;;5056599;28;20380;-66
2021/12/11 00:25:39;;;;;;;1.95;1.10;;;4.10;83.20;;;;;;5056747;28;20040;-66
2021/12/11 00:28:07;;;;;;;1.15;1.05;;;4.10;83.30;;;;;;5057027;28;20040;-67
2021/12/11 00:30:35;;;;;;;2.85;1.33;;;4.20;83.30;;;;;;5055539;28;20029;-66
2021/12/11 00:33:05;;;;;;;3.08;1.20;;;4.10;83.30;;;;;;5056519;28;20046;-67
2021/12/11 00:35:34;;;;;;;3.10;1.20;;;4.10;83.30;;;;;;5058136;28;20558;-67
2021/12/11 00:38:06;;;;;;;2.45;1.10;;;4.20;83.30;;;;;;5057673;28;20036;-66
2021/12/11 00:40:32;;;;;;;1.33;1.00;;;4.10;83.20;;;;;;5056592;28;20083;-66
2021/12/11 00:43:03;;;;;;;2.55;0.98;;;4.10;83.20;;;;;;5057636;28;20413;-67
2021/12/11 00:45:33;;;;;;;2.58;1.00;;;4.10;83.20;;;;;;5055940;28;20103;-66
2021/12/11 00:48:04;;;;;;;1.65;1.08;;;4.10;83.20;;;;;;5055263;28;20021;-67
2021/12/11 00:50:40;;;;;;;2.95;1.23;;;4.10;83.20;;;;;;5056145;28;20094;-66
2021/12/11 00:53:24;;;;;;;1.60;1.15;;;4.10;83.20;;;;;;5057015;28;20029;-67
2021/12/11 00:55:52;;;;;;;4.13;1.20;;;4.10;83.20;;;;;;5056137;28;20043;-66
2021/12/11 00:58:34;;;;;;;2.88;1.38;;;4.10;84.00;;;;;;5021568;28;20035;-66
2021/12/11 01:01:06;;;;;;;1.90;1.17;;;4.10;83.20;;;;;;5054913;28;20058;-65
2021/12/11 01:03:34;;;;;;;2.65;1.20;;;4.10;83.20;;;;;;5055353;28;20029;-66
2021/12/11 01:06:08;;;;;;;2.00;1.15;;;4.10;83.20;;;;;;5057116;28;20474;-66
2021/12/11 01:08:43;;;;;;;3.15;1.55;;;4.20;83.20;;;;;;5055619;28;20166;-66
2021/12/11 01:11:19;;;;;;;2.58;1.30;;;4.10;83.20;;;;;;5037499;28;20065;-66
2021/12/11 01:13:54;;;;;;;3.85;1.20;;;4.10;83.10;;;;;;5058171;28;20550;-66
2021/12/11 01:16:21;;;;;;;2.17;1.27;;;4.10;83.20;;;;;;5056225;28;20095;-66
2021/12/11 01:18:55;;;;;;;4.40;1.30;;;4.20;83.20;;;;;;5054473;28;20501;-66
2021/12/11 01:21:44;;;;;;;2.35;1.10;;;4.20;83.20;;;;;;5056180;28;21080;-66
2021/12/11 01:24:28;;;;;;;4.60;1.20;;;4.10;83.20;;;;;;5059212;28;20035;-66
2021/12/11 01:26:56;;;;;;;2.83;1.30;;;4.10;84.00;;;;;;5054953;28;20028;-65
2021/12/11 01:29:23;;;;;;;3.80;1.13;;;4.10;83.10;;;;;;5059963;28;20033;-65
2021/12/11 01:31:52;;;;;;;1.88;1.02;;;4.20;83.20;;;;;;5056107;28;20041;-65
2021/12/11 01:34:18;;;;;;;2.30;1.35;;;4.10;83.10;;;;;;5055678;28;20054;-65
2021/12/11 01:36:44;;;;;;;2.38;1.33;;;4.10;84.00;;;;;;5055295;28;20546;-66
2021/12/11 01:39:17;;;;;;;3.22;1.42;;;4.10;83.20;;;;;;5056532;28;20048;-66
2021/12/11 01:41:44;;;;;;;4.72;1.40;;;4.10;83.20;;;;;;5056727;28;20032;-65
2021/12/11 01:44:14;;;;;;;2.13;1.30;;;4.10;83.10;;;;;;5056330;28;20051;-66
2021/12/11 01:46:41;;;;;;;3.50;1.30;;;4.10;83.20;;;;;;5057594;28;20021;-65
2021/12/11 01:49:15;;;;;;;4.45;1.40;;;4.10;83.20;;;;;;5041465;28;20066;-66
2021/12/11 01:51:52;;;;;;;3.67;1.30;;;4.10;83.20;;;;;;5058243;28;20495;-65
2021/12/11 01:54:20;;;;;;;1.63;1.20;;;4.10;83.10;;;;;;5055900;28;20406;-64
2021/12/11 01:56:54;;;;;;;2.58;1.35;;;4.10;83.00;;;;;;5055854;28;20681;-65
2021/12/11 01:59:24;;;;;;;4.15;1.40;;;4.10;83.00;;;;;;5055646;28;20036;-65
2021/12/11 02:02:05;;;;;;;3.25;1.20;;;4.20;83.20;;;;;;5041296;28;20539;-66
2021/12/11 02:04:35;;;;;;;2.88;1.58;;;4.10;83.00;;;;;;5055545;28;20047;-65
2021/12/11 02:07:06;;;;;;;3.17;1.30;;;4.20;83.10;;;;;;5056780;28;20025;-65
2021/12/11 02:09:35;;;;;;;3.47;1.25;;;4.10;83.00;;;;;;5056167;28;20037;-66
2021/12/11 02:12:10;;;;;;;5.30;1.60;;;4.20;83.20;;;;;;5058210;28;20032;-65
2021/12/11 02:14:41;;;;;;;1.85;1.10;;;4.20;83.00;;;;;;5057391;28;20120;-65
2021/12/11 02:17:32;;;;;;;2.50;1.35;;;4.20;83.10;;;;;;5058778;28;20051;-65
2021/12/11 02:20:04;;;;;;;1.35;1.00;;;4.20;83.00;;;;;;5056529;28;20032;-65
2021/12/11 02:22:39;;;;;;;2.20;1.00;;;4.20;83.00;;;;;;5039839;28;20040;-65
2021/12/11 02:25:14;;;;;;;;;;;4.20;83.00;;;;;;5057608;28;20477;-66
2021/12/11 02:28:08;;;;;;;2.13;1.03;;;4.20;83.00;;;;;;5056170;28;19974;-66
2021/12/11 02:30:42;;;;;;;2.05;1.10;;;4.20;82.80;;;;;;5050194;28;20075;-66
2021/12/11 02:33:23;;;;;;;3.30;1.08;;;4.20;82.80;;;;;;5055868;28;20059;-66
2021/12/11 02:36:10;;;;;;;2.20;1.00;;;4.20;82.80;;;;;;5056204;28;20112;-66
2021/12/11 02:38:38;;;;;;;3.47;1.40;;;4.10;82.80;;;;;;5055316;28;20116;-65
2021/12/11 02:41:16;;;;;;;2.90;1.20;;;4.10;82.80;;;;;;5055769;28;20678;-65
2021/12/11 02:43:43;;;;;;;3.40;1.00;;;4.10;82.80;;;;;;5056860;28;20192;-66
2021/12/11 02:46:18;;;;;;;3.13;1.20;;;4.10;82.80;;;;;;5037334;28;20032;-66
2021/12/11 02:49:00;;;;;;;1.98;1.10;;;4.10;82.80;;;;;;5055358;28;20051;-66
2021/12/11 02:51:45;;;;;;;3.03;1.30;;;4.10;82.90;;;;;;5056541;28;20028;-66
2021/12/11 02:54:18;;;;;;;2.03;1.40;;;4.10;82.80;;;;;;5053209;28;20085;-66
2021/12/11 02:56:52;;;;;;;2.72;1.20;;;4.10;82.80;;;;;;5055339;28;20090;-66
2021/12/11 02:59:23;;;;;;;3.03;1.48;;;4.20;82.90;;;;;;5054558;28;20445;-65
2021/12/11 03:02:01;;;;;;;3.88;1.90;;;4.10;82.80;;;;;;5039302;28;20596;-66
2021/12/11 03:04:36;;;;;;;2.83;1.95;;;4.20;82.80;;;;;;5055709;28;20128;-66
2021/12/11 03:07:06;;;;;;;2.45;1.42;;;4.20;83.70;;;;;;5056466;28;20037;-66
2021/12/11 03:09:36;;;;;;;2.10;1.00;;;4.10;82.70;;;;;;5056899;28;20123;-66
2021/12/11 03:12:05;;;;;;;1.23;1.08;;;4.10;82.70;;;;;;5056250;28;20064;-66
2021/12/11 03:14:30;;;;;;;0.98;0.85;;;4.10;82.70;;;;;;5055606;28;20037;-66
2021/12/11 03:16:56;;;;;;;2.45;1.40;;;4.10;82.70;;;;;;5056553;28;20043;-66
2021/12/11 03:19:29;;;;;;;3.33;1.30;;;4.10;82.80;;;;;;5053993;28;20887;-66
2021/12/11 03:21:57;;;;;;;1.73;0.90;;;4.20;82.80;;;;;;5054184;28;20127;-66
2021/12/11 03:24:25;;;;;;;1.60;1.02;;;4.10;82.80;;;;;;5055833;28;20119;-66
2021/12/11 03:26:52;;;;;;;1.75;0.90;;;4.10;82.80;;;;;;5054732;28;20029;-66
2021/12/11 03:29:18;;;;;;;0.93;0.70;;;4.10;82.80;;;;;;5055083;28;20460;-65
2021/12/11 03:31:45;;;;;;;1.58;0.93;;;4.10;82.80;;;;;;5055246;28;20037;-66
2021/12/11 03:34:15;;;;;;;1.60;0.90;;;4.10;82.70;;;;;;5054295;28;20143;-66
2021/12/11 03:36:41;;;;;;;1.63;0.98;;;4.10;82.70;;;;;;5056884;28;20067;-66
2021/12/11 03:39:32;;;;;;;1.40;0.90;;;4.10;82.70;;;;;;5056367;28;20056;-66
2021/12/11 03:42:00;;;;;;;2.92;1.00;;;4.10;82.70;;;;;;5056404;28;20643;-66
2021/12/11 03:44:32;;;;;;;1.27;0.70;;;4.10;82.70;;;;;;5053242;28;20024;-66
2021/12/11 03:47:00;;;;;;;2.20;1.00;;;4.10;82.70;;;;;;5056914;28;20086;-66
2021/12/11 03:49:26;;;;;;;2.10;1.00;;;4.10;82.80;;;;;;5054654;28;20124;-66
2021/12/11 03:51:53;;;;;;;1.50;1.10;;;4.10;82.70;;;;;;5054914;28;20111;-66
2021/12/11 03:54:29;;;;;;;2.33;1.00;;;4.10;82.70;;;;;;5057076;28;20043;-66
2021/12/11 03:56:55;;;;;;;1.33;0.88;;;4.10;82.70;;;;;;5051746;28;20569;-66
2021/12/11 03:59:20;;;;;;;1.75;0.90;;;4.10;82.80;;;;;;5054716;28;20535;-66
2021/12/11 04:01:55;;;;;;;1.00;0.90;;;4.10;82.80;;;;;;5056031;28;20037;-65
2021/12/11 04:04:40;;;;;;;;;;;4.10;82.80;;;;;;5054219;28;20044;-66
2021/12/11 04:07:09;;;;;;;1.25;0.80;;;4.10;82.70;;;;;;5054271;28;19936;-66
2021/12/11 04:09:35;;;;;;;2.30;0.88;;;4.10;82.60;;;;;;5054500;28;20055;-66
2021/12/11 04:12:02;;;;;;;1.20;0.73;;;4.10;82.60;;;;;;5051208;28;20613;-65
2021/12/11 04:14:31;;;;;;;1.60;1.00;;;4.10;82.60;;;;;;5053381;28;20044;-66
2021/12/11 04:16:58;;;;;;;1.52;0.75;;;4.10;82.80;;;;;;5053092;28;20570;-66
2021/12/11 04:19:24;;;;;;;1.77;1.08;;;4.10;82.70;;;;;;5056210;28;20048;-66
2021/12/11 04:21:50;;;;;;;1.10;1.00;;;4.10;82.70;;;;;;5057585;28;20055;-66
2021/12/11 04:24:20;;;;;;;1.30;1.20;;;4.10;82.70;;;;;;5054716;28;20124;-67
2021/12/11 04:26:49;;;;;;;2.58;1.13;;;4.10;82.70;;;;;;5052072;28;20041;-66
2021/12/11 04:29:15;;;;;;;1.05;0.95;;;4.10;82.70;;;;;;5053691;28;20041;-65
2021/12/11 04:31:43;;;;;;;4.05;1.13;;;4.10;82.80;;;;;;5055047;28;20044;-67
2021/12/11 04:34:13;;;;;;;1.05;1.00;;;4.20;82.80;;;;;;5038536;28;20126;-66
2021/12/11 04:36:45;;;;;;;24.55;7.95;;;4.10;82.70;;;;;;5054786;28;20500;-66
2021/12/11 04:39:14;;;;;;;5.47;2.88;;;4.10;82.60;;;;;;5054549;28;20044;-67
2021/12/11 04:41:51;;;;;;;2.15;1.60;;;4.10;82.60;;;;;;5055414;28;20036;-66
2021/12/11 04:44:25;;;;;;;3.40;1.58;;;4.10;82.60;;;;;;5053424;28;20028;-66
2021/12/11 04:46:52;;;;;;;1.80;1.60;;;4.10;82.80;;;;;;5043386;28;20037;-67
2021/12/11 04:49:31;;;;;;;2.00;1.50;;;4.10;82.80;;;;;;5058171;28;20040;-66
2021/12/11 05:05:06;;;;;;;3.33;2.10;;;4.10;82.60;;;;;;5058355;28;20499;-66
2021/12/11 05:10:24;;;;;;;2.67;1.63;;;4.10;82.70;;;;;;5059521;28;20032;-66
2021/12/11 05:12:57;;;;;;;1.83;1.50;;;4.10;82.80;;;;;;5056348;28;20511;-66
2021/12/11 05:15:36;;;;;;;2.47;1.80;;;4.10;82.80;;;;;;5057474;28;20044;-65
2021/12/11 05:18:05;;;;;;;2.28;1.80;;;4.10;82.80;;;;;;5057895;28;20136;-67
2021/12/11 05:20:33;;;;;;;4.75;2.10;;;4.10;82.80;;;;;;5055404;28;20047;-66
2021/12/11 05:23:00;;;;;;;2.17;1.83;;;4.10;82.80;;;;;;5055600;28;20037;-67
2021/12/11 05:25:26;;;;;;;2.58;1.80;;;4.10;82.80;;;;;;5056157;28;20044;-66
2021/12/11 05:27:52;;;;;;;3.25;2.17;;;4.10;82.80;;;;;;5055356;28;20037;-66
2021/12/11 05:30:25;;;;;;;4.32;2.42;;;4.10;82.80;;;;;;5056792;28;20068;-65
2021/12/11 05:32:51;;;;;;;3.00;2.53;;;4.10;82.80;;;;;;5057489;28;20033;-66
2021/12/11 05:35:18;;;;;;;2.45;1.83;;;4.10;82.80;;;;;;5058828;28;20056;-66
2021/12/11 05:37:44;;;;;;;2.63;1.60;;;4.10;82.80;;;;;;5057622;28;20446;-66
2021/12/11 05:40:14;;;;;;;2.03;1.80;;;4.10;82.80;;;;;;5056417;28;20033;-66
2021/12/11 05:42:40;;;;;;;1.63;1.52;;;4.10;82.80;;;;;;5059037;28;20032;-66
2021/12/11 05:45:06;;;;;;;2.75;1.80;;;4.20;82.80;;;;;;5057559;28;20531;-65
2021/12/11 05:47:32;;;;;;;3.05;2.20;;;4.10;82.80;;;;;;5058358;28;20527;-66
2021/12/11 05:49:58;;;;;;;1.73;1.60;;;4.10;82.80;;;;;;5057206;28;20032;-66
2021/12/11 05:52:25;;;;;;;2.20;1.52;;;4.10;82.70;;;;;;5056435;28;20052;-66
2021/12/11 05:54:52;;;;;;;2.35;2.15;;;4.10;82.80;;;;;;5055157;28;20437;-65
2021/12/11 05:57:21;;;;;;;2.70;1.75;;;4.10;82.80;;;;;;5055095;28;20049;-66
2021/12/11 05:59:50;;;;;;;1.70;1.60;;;4.10;82.80;;;;;;5056984;28;20400;-66
2021/12/11 06:02:27;;;;;;;1.90;1.80;;;4.10;82.80;;;;;;5055091;28;20085;-66
2021/12/11 06:04:55;;;;;;;2.05;1.85;;;4.10;82.80;;;;;;5056995;28;20089;-66
2021/12/11 06:07:24;;;;;;;1.63;1.52;;;4.10;82.90;;;;;;5057456;28;20033;-66
2021/12/11 06:09:54;;;;;;;1.83;1.73;;;4.10;82.90;;;;;;5059331;28;20061;-67
2021/12/11 06:12:21;;;;;;;1.65;1.55;;;4.10;83.00;;;;;;5058997;28;20033;-66
2021/12/11 06:14:48;;;;;;;2.53;2.08;;;4.10;83.00;;;;;;5059564;28;20040;-67
2021/12/11 06:17:18;;;;;;;2.53;1.80;;;4.10;83.00;;;;;;5057919;28;20045;-67
2021/12/11 06:19:50;;;;;;;3.10;2.00;;;4.10;83.00;;;;;;5058820;28;20045;-66
2021/12/11 06:22:17;;;;;;;5.05;2.25;;;4.10;83.00;;;;;;5058559;28;20945;-66
2021/12/11 06:24:43;;;;;;;1.90;1.80;;;4.10;83.00;;;;;;5058667;28;20632;-66
2021/12/11 06:27:09;;;;;;;2.90;2.20;;;4.10;83.00;;;;;;5059547;28;20036;-66
2021/12/11 06:29:35;;;;;;;2.25;2.05;;;4.10;83.00;;;;;;5057470;28;20116;-66
2021/12/11 06:32:01;;;;;;;3.42;2.55;;;4.10;83.00;;;;;;5055200;28;20060;-66
2021/12/11 06:34:27;;;;;;;4.20;3.10;;;4.10;83.00;;;;;;5051882;28;20041;-66
2021/12/11 06:36:53;;;;;;;3.15;2.72;;;4.10;83.20;;;;;;5051800;28;22362;-66
2021/12/11 06:39:22;;;;;;;4.15;2.90;;;4.10;83.20;;;;;;5052456;28;20082;-66
2021/12/11 06:41:52;;;;;;;2.72;2.53;;;4.10;83.20;;;;;;5050749;28;20045;-66
2021/12/11 06:44:19;;;;;;;2.88;2.50;;;4.10;83.20;;;;;;5051660;28;20037;-66
2021/12/11 06:46:45;;;;;;;2.53;2.15;;;4.10;83.20;;;;;;5053240;28;20056;-65
2021/12/11 06:49:11;;;;;;;3.10;2.40;;;4.10;83.20;;;;;;5054959;28;20037;-66
2021/12/11 06:51:38;;;;;;;2.33;2.10;;;4.10;83.20;;;;;;5053014;28;20040;-66
2021/12/11 06:54:07;;;;;;;2.10;1.90;;;4.00;83.20;;;;;;5055692;28;20041;-66
2021/12/11 06:56:35;;;;;;;2.20;2.00;;;4.00;83.30;;;;;;5054728;28;20033;-66
2021/12/11 06:59:01;;;;;;;2.10;1.90;;;4.00;83.40;;;;;;5055294;28;20512;-66
2021/12/11 07:01:28;;;;;;;2.22;1.88;;;4.00;83.50;;;;;;5056355;28;20075;-66
2021/12/11 07:03:56;;;;;;;2.15;1.58;;;3.90;83.60;;;;;;5051913;28;20569;-66
2021/12/11 07:06:22;;;;;;;2.47;2.15;;;3.90;83.70;;;;;;5057212;28;20181;-66
2021/12/11 07:08:49;;;;;;;2.88;2.60;;;4.00;83.90;;;;;;5057271;28;20032;-66
2021/12/11 07:11:15;;;;;;;3.55;2.70;;;3.90;83.90;;;;;;5038498;28;20526;-66
2021/12/11 07:13:42;;;;;;;3.25;2.80;;;3.90;83.90;;;;;;5055056;28;20029;-65
2021/12/11 07:16:08;;;;;;;2.95;2.35;;;3.90;84.00;;;;;;5058861;28;20041;-66
2021/12/11 07:18:35;;;;;;;1.70;1.60;;;3.90;84.00;;;;;;5055348;28;20091;-66
2021/12/11 07:21:02;;;;;;;2.22;2.03;;;3.90;84.00;;;;;;5055740;28;20052;-67
2021/12/11 07:23:28;;;;;;;1.95;1.85;;;3.90;84.90;;;;;;5055852;28;20565;-65
2021/12/11 07:26:15;;;;;;;1.80;1.70;;;3.90;84.00;;;;;;5056642;28;20052;-66
2021/12/11 07:28:43;;;;;;;2.45;2.30;;;4.00;84.00;;;;;;5053874;28;20436;-66
2021/12/11 07:31:09;;;;;;;2.15;2.05;;;4.00;84.00;;;;;;5058173;28;20084;-66
2021/12/11 07:33:35;;;;;;;2.10;2.00;;;4.00;83.90;;;;;;5056490;28;20028;-66
2021/12/11 07:36:01;;;;;;;2.08;1.98;;;4.00;83.90;;;;;;5056265;28;20049;-66
2021/12/11 07:38:27;;;;;;;2.65;2.00;;;4.00;83.80;;;;;;5052435;28;20040;-65
2021/12/11 07:40:57;;;;;;;1.90;1.80;;;4.00;83.70;;;;;;5054218;28;20598;-66
2021/12/11 07:43:25;;;;;;;2.42;2.20;;;4.00;83.70;;;;;;5049610;28;20619;-66
2021/12/11 07:45:52;;;;;;;2.38;2.17;;;4.00;83.60;;;;;;5051259;28;20109;-66
2021/12/11 07:48:18;;;;;;;2.38;2.17;;;4.10;83.70;;;;;;5053151;28;20029;-66
2021/12/11 07:50:45;;;;;;;2.95;2.50;;;4.00;83.50;;;;;;5054667;28;20043;-66
2021/12/11 07:53:11;;;;;;;2.80;2.60;;;4.00;83.50;;;;;;5052441;28;20044;-66
2021/12/11 07:55:38;;;;;;;2.83;2.53;;;4.00;83.40;;;;;;5052624;28;20032;-66
2021/12/11 07:58:05;;;;;;;2.97;2.67;;;4.00;83.50;;;;;;5050699;28;20524;-66
2021/12/11 08:00:32;;;;;;;3.10;2.80;;;4.00;83.50;;;;;;5054554;28;20048;-67
2021/12/11 08:02:58;;;;;;;3.38;3.08;;;4.00;83.50;;;;;;5055332;28;20518;-67
2021/12/11 08:05:27;;;;;;;3.63;2.95;;;4.00;83.50;;;;;;5048504;28;20045;-65
2021/12/11 08:07:53;;;;;;;4.35;3.50;;;4.10;83.60;;;;;;5048015;28;20036;-66
2021/12/11 08:10:22;;;;;;;3.95;3.55;;;4.10;83.50;;;;;;5044884;28;20140;-66
2021/12/11 08:12:48;;;;;;;3.38;3.08;;;4.10;83.50;;;;;;5050736;28;20400;-69
2021/12/11 08:15:16;;;;;;;3.95;2.85;;;4.10;83.50;;;;;;5052283;28;20048;-67
2021/12/11 08:17:43;;;;;;;3.33;3.03;;;4.10;83.40;;;;;;5051190;28;20107;-67
2021/12/11 08:20:11;;;;;;;3.88;3.47;;;4.20;83.50;;;;;;5049617;28;20865;-66
2021/12/11 08:22:38;;;;;;;4.80;3.70;;;4.10;83.40;;;;;;5051701;28;20761;-66
2021/12/11 08:25:05;;;;;;;4.82;3.78;;;4.20;83.40;;;;;;5051963;28;20047;-66
2021/12/11 08:27:32;;;;;;;3.55;3.25;;;4.20;83.30;;;;;;5052413;28;20037;-66
2021/12/11 08:29:57;;;;;;;4.72;3.90;;;4.20;83.20;;;;;;5052953;28;20060;-66
2021/12/11 08:32:25;;;;;;;3.38;3.08;;;4.20;83.10;;;;;;5049631;28;20128;-65
2021/12/11 08:34:52;;;;;;;3.33;3.03;;;4.20;83.10;;;;;;5051396;28;20068;-66
2021/12/11 08:37:20;;;;;;;3.47;2.92;;;4.20;82.80;;;;;;5050222;28;20039;-66
2021/12/11 08:39:46;;;;;;;3.30;3.10;;;4.30;82.80;;;;;;5052037;28;20036;-66
2021/12/11 08:42:17;;;;;;;4.03;3.65;;;4.30;82.70;;;;;;5050930;28;20037;-67
2021/12/11 08:44:50;;;;;;;4.40;3.65;;;4.30;82.50;;;;;;5052224;28;20049;-67
2021/12/11 08:47:17;;;;;;;3.80;3.47;;;4.30;82.50;;;;;;5045762;28;20032;-66
2021/12/11 08:49:43;;;;;;;3.22;2.92;;;4.30;82.50;;;;;;5047151;28;20533;-66
2021/12/11 08:52:12;;;;;;;3.58;3.28;;;4.30;82.30;;;;;;5052110;28;20037;-65
2021/12/11 08:54:39;;;;;;;2.90;2.60;;;4.30;82.30;;;;;;5050619;28;20036;-66
2021/12/11 08:57:08;;;;;;;3.40;2.88;;;4.20;82.30;;;;;;5048573;28;20037;-66
2021/12/11 08:59:38;;;;;;;4.72;2.70;;;4.30;82.20;;;;;;5048928;28;20086;-66
2021/12/11 09:02:11;;;;;;;3.00;2.80;;;4.30;82.20;;;;;;5047645;28;20049;-66
2021/12/11 09:04:55;;;;;;;3.25;2.60;;;4.30;82.50;;;;;;5048444;28;20036;-66
2021/12/11 09:07:36;;;;;;;4.80;2.15;;;4.30;81.80;;;;;;5050398;28;20127;-66
2021/12/11 09:10:19;;;;;;;2.55;2.35;;;4.30;81.60;;;;;;5050744;28;20038;-66
2021/12/11 09:12:51;;;;;;;2.80;2.58;;;4.30;81.50;;;;;;5049248;28;20041;-66
2021/12/11 09:15:31;;;;;;;3.22;2.40;;;4.30;81.60;;;;;;5049663;28;20075;-66
2021/12/11 09:18:14;;;;;;;2.35;2.17;;;4.30;81.60;;;;;;5051350;28;20090;-66
2021/12/11 09:20:46;;;;;;;2.60;2.40;;;4.30;81.50;;;;;;5050133;28;20119;-66
2021/12/11 09:23:32;;;;;;;2.60;2.40;;;4.30;81.50;;;;;;5050446;28;20707;-66
2021/12/11 09:26:09;;;;;;;2.72;2.35;;;4.40;81.30;;;;;;5048959;28;20550;-66
2021/12/11 09:28:47;;;;;;;3.22;2.40;;;4.40;81.20;;;;;;5049290;28;20045;-65
2021/12/11 09:31:21;;;;;;;2.60;2.40;;;4.40;81.10;;;;;;5054064;28;20515;-66
2021/12/11 09:33:59;;;;;;;2.60;2.40;;;4.40;81.00;;;;;;5052470;28;20037;-66
2021/12/11 09:36:31;;;;;;;2.78;2.50;;;4.40;80.80;;;;;;5054084;28;20046;-63
2021/12/11 09:39:07;;;;;;;2.60;2.30;;;4.40;81.20;;;;;;5056498;28;20036;-66
2021/12/11 09:41:33;;;;;;;2.67;2.40;;;4.40;81.20;;;;;;5053394;28;21921;-65
2021/12/11 09:44:10;;;;;;;3.35;2.60;;;4.40;81.10;;;;;;5055240;28;20043;-66
2021/12/11 09:46:45;;;;;;;2.90;2.60;;;4.40;81.20;;;;;;5051039;28;20048;-66
2021/12/11 09:49:18;;;;;;;2.33;2.20;;;4.40;81.30;;;;;;5056113;28;20119;-66
2021/12/11 09:51:46;;;;;;;2.40;2.20;;;4.40;81.30;;;;;;5054654;28;20029;-66
2021/12/11 09:54:22;;;;;;;2.45;2.25;;;4.40;81.10;;;;;;5055673;28;20058;-66
2021/12/11 09:56:52;;;;;;;2.63;2.42;;;4.50;81.00;;;;;;5057854;28;20685;-66
2021/12/11 09:59:21;;;;;;;2.50;2.30;;;4.40;81.10;;;;;;5055147;28;20044;-66
2021/12/11 10:01:53;;;;;;;1.58;1.48;;;4.40;80.90;;;;;;5053044;28;20064;-65
2021/12/11 10:04:30;;;;;;;1.45;1.27;;;4.50;80.70;;;;;;5056900;28;20082;-65
2021/12/11 10:09:27;;;;;;;1.30;1.20;;;4.40;80.70;;;;;;5050878;28;20032;-66
2021/12/11 10:12:02;;;;;;;0.77;0.77;;;4.40;80.60;;;;;;5053134;28;20496;-66
2021/12/11 10:15:11;;;;;;;0.90;0.90;;;4.40;80.20;;;;;;5053974;28;20124;-65
2021/12/11 10:17:43;;;;;;;1.20;1.10;;;4.40;80.00;;;;;;5036726;28;20036;-66
2021/12/11 10:20:14;;;;;;;1.15;1.05;;;4.30;80.30;;;;;;5054293;28;20040;-65
2021/12/11 10:22:41;;;;;;;1.42;1.30;;;4.30;80.60;;;;;;5055641;28;20032;-66
2021/12/11 10:25:13;;;;;;;1.83;1.73;;;4.30;80.70;;;;;;5055097;28;20041;-65
2021/12/11 10:27:39;;;;;;;2.30;2.10;;;4.30;80.70;;;;;;5057561;28;20033;-66
2021/12/11 10:30:07;;;;;;;4.18;2.95;;;4.30;81.00;;;;;;5044114;28;20044;-65
2021/12/11 10:32:33;;;;;;;6.38;4.03;;;4.30;82.10;;;;;;5057988;28;20119;-66
2021/12/11 10:35:06;;;;;;;2.50;2.30;;;4.30;81.30;;;;;;5053883;28;20051;-66
2021/12/11 10:37:36;;;;;;;2.80;2.60;;;4.40;81.30;;;;;;5053513;28;20136;-66
2021/12/11 10:40:24;;;;;;;4.18;3.78;;;4.30;81.10;;;;;;5054244;28;20089;-66
2021/12/11 10:43:00;;;;;;;4.25;3.53;;;4.40;81.00;;;;;;5050957;28;20495;-66
2021/12/11 10:45:27;;;;;;;3.55;3.25;;;4.40;81.30;;;;;;5053269;28;20121;-66
2021/12/11 10:47:59;;;;;;;3.42;3.13;;;4.40;81.30;;;;;;5049272;28;20039;-66
2021/12/11 10:50:32;;;;;;;3.13;2.83;;;4.40;81.30;;;;;;5053488;28;20056;-65
2021/12/11 10:53:00;;;;;;;4.88;3.55;;;4.50;81.10;;;;;;5057319;28;20028;-66
2021/12/11 10:55:29;;;;;;;3.92;2.95;;;4.50;81.80;;;;;;5058717;28;20045;-65
2021/12/11 10:57:57;;;;;;;3.38;2.80;;;4.50;81.10;;;;;;5059210;28;20044;-66
2021/12/11 11:00:29;;;;;;;3.47;3.17;;;4.50;81.10;;;;;;5060071;28;20052;-66
2021/12/11 11:02:55;;;;;;;4.22;3.53;;;4.50;81.10;;;;;;5059347;28;20036;-66
2021/12/11 11:05:26;;;;;;;4.53;3.80;;;4.60;81.30;;;;;;5060704;28;20052;-66
2021/12/11 11:07:52;;;;;;;4.38;3.63;;;4.60;81.20;;;;;;5059879;28;20064;-66
2021/12/11 11:10:23;;;;;;;3.20;2.90;;;4.60;81.40;;;;;;5061068;28;20143;-66
2021/12/11 11:12:49;;;;;;;3.67;2.80;;;4.70;81.00;;;;;;5056491;28;20090;-66
2021/12/11 11:15:20;;;;;;;3.28;2.97;;;4.70;80.70;;;;;;5060115;28;20526;-66
2021/12/11 11:17:47;;;;;;;2.95;2.65;;;4.70;80.60;;;;;;5060236;28;20063;-66
2021/12/11 11:20:16;;;;;;;3.08;2.78;;;4.80;80.70;;;;;;5060296;28;20040;-67
2021/12/11 11:22:43;;;;;;;3.33;3.03;;;4.70;80.40;;;;;;5059635;28;20091;-67
2021/12/11 11:25:25;;;;;;;2.92;2.72;;;4.80;80.40;;;;;;5059839;28;20110;-66
2021/12/11 11:27:57;;;;;;;2.58;2.38;;;4.70;79.70;;;;;;5059362;28;20112;-66
2021/12/11 11:30:28;;;;;;;3.10;2.90;;;4.70;79.70;;;;;;5058713;28;20025;-67
2021/12/11 11:32:55;;;;;;;2.92;2.72;;;4.70;79.70;;;;;;5058220;28;20038;-66
2021/12/11 11:35:25;;;;;;;3.35;3.10;;;4.70;79.90;;;;;;5047381;28;20102;-66
2021/12/11 11:37:56;;;;;;;3.28;2.97;;;4.70;79.90;;;;;;5052717;28;20423;-66
2021/12/11 11:40:29;;;;;;;3.30;3.00;;;4.70;80.00;;;;;;5054799;28;20064;-66
2021/12/11 11:42:57;;;;;;;3.97;3.30;;;4.70;79.90;;;;;;5054883;28;20143;-66
2021/12/11 11:45:24;;;;;;;5.18;3.55;;;4.70;80.00;;;;;;5057286;28;20110;-66
2021/12/11 11:47:51;;;;;;;5.45;4.20;;;4.70;80.00;;;;;;5054289;28;20091;-65
2021/12/11 11:50:26;;;;;;;9.73;7.55;;;4.70;80.00;;;;;;5055550;28;20074;-66
2021/12/11 11:52:52;;;;;;;5.53;4.93;;;4.70;80.00;;;;;;5051936;28;20048;-65
2021/12/11 11:55:26;;;;;;;4.53;4.13;;;4.70;80.10;;;;;;5055545;28;20036;-66
2021/12/11 11:57:55;;;;;;;4.87;4.03;;;4.70;80.00;;;;;;5056083;28;20037;-65
2021/12/11 12:00:28;;;;;;;4.85;3.58;;;4.70;80.10;;;;;;5054356;28;20074;-66
2021/12/11 12:02:56;;;;;;;6.18;3.70;;;4.70;80.40;;;;;;5055156;28;20043;-66
2021/12/11 12:05:23;;;;;;;6.13;3.85;;;4.80;80.50;;;;;;5057044;28;20124;-65
2021/12/11 12:07:49;;;;;;;4.43;3.60;;;4.80;80.30;;;;;;5059925;28;20031;-66
2021/12/11 12:10:26;;;;;;;6.80;4.40;;;4.80;80.10;;;;;;5059964;28;20037;-66
2021/12/11 12:12:52;;;;;;;5.90;3.90;;;4.80;80.10;;;;;;5054869;28;20036;-66
2021/12/11 12:15:26;;;;;;;3.58;3.28;;;4.80;80.10;;;;;;5057993;28;20035;-66
2021/12/11 12:17:52;;;;;;;3.63;3.33;;;4.80;80.00;;;;;;5048149;28;20129;-67
2021/12/11 12:20:19;;;;;;;7.22;3.80;;;4.80;79.90;;;;;;5059119;28;20127;-67
2021/12/11 12:22:48;;;;;;;4.70;4.20;;;4.70;80.00;;;;;;5057150;28;20495;-65
2021/12/11 12:25:15;;;;;;;5.78;4.40;;;4.70;79.90;;;;;;5060019;28;20534;-65
2021/12/11 12:27:42;;;;;;;4.30;3.90;;;4.70;80.00;;;;;;5058104;28;20040;-65
2021/12/11 12:30:21;;;;;;;5.75;4.35;;;4.70;80.20;;;;;;5058098;28;20052;-65
2021/12/11 12:32:50;;;;;;;4.50;4.07;;;4.70;80.10;;;;;;5057250;28;20387;-66
2021/12/11 12:35:18;;;;;;;4.40;4.00;;;4.60;80.00;;;;;;5058499;28;20033;-65
2021/12/11 12:37:44;;;;;;;5.30;4.10;;;4.60;80.20;;;;;;5057049;28;20040;-65
2021/12/11 12:40:17;;;;;;;5.82;4.13;;;4.60;80.30;;;;;;5056716;28;20064;-65
2021/12/11 12:42:54;;;;;;;4.28;3.88;;;4.60;80.40;;;;;;5057285;28;20037;-66
2021/12/11 12:45:22;;;;;;;7.18;5.50;;;4.60;81.40;;;;;;5055914;28;20094;-66
2021/12/11 12:47:56;;;;;;;8.30;5.28;;;4.60;80.60;;;;;;5056294;28;20577;-66
2021/12/11 12:50:44;;;;;;;4.55;4.15;;;4.60;80.60;;;;;;5057145;28;20139;-65
2021/12/11 12:53:10;;;;;;;4.93;4.38;;;4.60;80.40;;;;;;5056896;28;20495;-66
2021/12/11 12:55:54;;;;;;;4.30;3.90;;;4.60;80.40;;;;;;5053073;28;20504;-67
2021/12/11 12:58:33;;;;;;;4.20;3.83;;;4.60;80.20;;;;;;5056249;28;20067;-66
2021/12/11 13:01:10;;;;;;;5.15;4.00;;;4.60;80.00;;;;;;5055844;28;20576;-67
2021/12/11 13:03:39;;;;;;;3.67;3.38;;;4.60;80.00;;;;;;5058356;28;20029;-68
2021/12/11 13:06:28;;;;;;;6.25;5.05;;;4.60;80.20;;;;;;5058943;28;20051;-68
2021/12/11 13:09:16;;;;;;;5.18;4.15;;;4.70;80.00;;;;;;5060824;28;20051;-68
2021/12/11 13:12:00;;;;;;;8.52;4.15;;;4.60;80.20;;;;;;5061304;28;20028;-67
2021/12/11 13:14:28;;;;;;;4.68;4.10;;;4.70;80.00;;;;;;5061340;28;20144;-68
2021/12/11 13:17:02;;;;;;;7.07;4.88;;;4.70;80.20;;;;;;5059382;28;20458;-66
2021/12/11 13:19:33;;;;;;;6.05;4.97;;;4.70;80.00;;;;;;5062393;28;20089;-66
2021/12/11 13:22:09;;;;;;;6.07;4.45;;;4.70;79.90;;;;;;5062107;28;20036;-67
2021/12/11 13:24:36;;;;;;;4.90;4.10;;;4.70;79.80;;;;;;5060865;28;20047;-67
2021/12/11 13:27:05;;;;;;;25.42;10.27;;;4.70;79.90;;;;;;5060004;28;20120;-68
2021/12/11 13:29:40;;;;;;;17.27;8.77;;;4.70;79.90;;;;;;5062827;28;20025;-67
2021/12/11 13:32:18;;;;;;;8.50;6.07;;;4.70;80.20;;;;;;5061334;28;20062;-67
2021/12/11 13:34:47;;;;;;;5.38;4.80;;;4.80;80.30;;;;;;5061041;28;20036;-67